Time;durP1;ratioP1;P1;durP2;ratioP2;P2;SDS_P1;SDS_P2;PMS_P1;PMS_P2;Temp;Humidity;BMP_temperature;BMP_pressure;BME280_temperature;BME280_humidity;BME280_pressure;Samples;Min_cycle;Max_cycle;Signal;HPM_P1;HPM_P2
2021/08/08 00:00:10;;;;;;;22.23;5.57;;;16.60;84.10;;;;;;5023251;28;20470;-72
2021/08/08 00:02:37;;;;;;;20.73;6.05;;;16.60;83.80;;;;;;5026568;28;20119;-74
2021/08/08 00:05:05;;;;;;;21.27;5.90;;;16.50;83.90;;;;;;5031767;28;20037;-72
2021/08/08 00:07:31;;;;;;;23.15;7.18;;;16.50;83.90;;;;;;5035021;28;20052;-74
2021/08/08 00:09:56;;;;;;;23.98;5.72;;;16.40;84.10;;;;;;5028051;28;20448;-73
2021/08/08 00:12:22;;;;;;;21.75;5.90;;;16.40;84.20;;;;;;4998415;28;20388;-73
2021/08/08 00:14:48;;;;;;;25.50;6.82;;;16.40;84.40;;;;;;5022182;28;20025;-73
2021/08/08 00:17:14;;;;;;;26.65;5.55;;;16.40;84.20;;;;;;5021869;28;20373;-80
2021/08/08 00:19:39;;;;;;;20.05;5.38;;;16.30;84.10;;;;;;5031589;28;20057;-72
2021/08/08 00:22:05;;;;;;;29.42;6.25;;;16.30;84.30;;;;;;5022312;28;20509;-79
2021/08/08 00:24:31;;;;;;;16.80;4.80;;;16.30;84.30;;;;;;5025083;28;20036;-76
2021/08/08 00:26:56;;;;;;;24.80;6.40;;;16.30;84.20;;;;;;5029767;28;20044;-77
2021/08/08 00:29:22;;;;;;;29.45;6.18;;;16.30;84.30;;;;;;5037625;28;20469;-73
2021/08/08 00:31:48;;;;;;;19.73;5.32;;;16.30;84.10;;;;;;5033572;28;20496;-73
2021/08/08 00:34:13;;;;;;;23.48;5.65;;;16.30;84.10;;;;;;5027116;28;20026;-73
2021/08/08 00:36:39;;;;;;;16.75;5.13;;;16.20;84.00;;;;;;5021422;28;20485;-73
2021/08/08 00:39:06;;;;;;;30.02;6.70;;;16.30;84.00;;;;;;5024584;28;20099;-74
2021/08/08 00:41:31;;;;;;;22.55;5.80;;;16.30;84.10;;;;;;5025787;28;20605;-73
2021/08/08 00:43:57;;;;;;;20.92;5.30;;;16.30;84.30;;;;;;5030227;28;20037;-76
2021/08/08 00:46:23;;;;;;;25.35;5.82;;;16.30;84.20;;;;;;5022087;28;20103;-73
2021/08/08 00:48:48;;;;;;;20.30;5.82;;;16.30;84.40;;;;;;5022820;28;20029;-73
2021/08/08 00:51:14;;;;;;;30.20;6.57;;;16.30;84.10;;;;;;5035546;28;20038;-73
2021/08/08 00:53:40;;;;;;;20.83;4.97;;;16.20;84.00;;;;;;5035674;28;20033;-73
2021/08/08 00:56:05;;;;;;;20.45;4.60;;;16.20;84.20;;;;;;5040002;28;20051;-73
2021/08/08 00:58:31;;;;;;;19.52;5.47;;;16.20;84.30;;;;;;5025561;28;20439;-73
2021/08/08 01:01:01;;;;;;;23.42;5.75;;;16.20;84.30;;;;;;5027909;28;20095;-73
2021/08/08 01:03:29;;;;;;;20.85;5.50;;;16.20;84.40;;;;;;5025302;28;20042;-73
2021/08/08 01:06:31;;;;;;;18.95;5.57;;;16.20;84.50;;;;;;5016679;28;20072;-72
2021/08/08 01:09:02;;;;;;;23.40;6.07;;;16.20;84.40;;;;;;5002108;28;20432;-73
2021/08/08 01:11:28;;;;;;;19.13;5.90;;;16.20;84.50;;;;;;5020249;28;20489;-72
2021/08/08 01:13:56;;;;;;;20.95;5.45;;;16.30;84.60;;;;;;5003991;28;20030;-73
2021/08/08 01:16:24;;;;;;;19.45;5.68;;;16.30;84.40;;;;;;5003436;28;20038;-72
2021/08/08 01:18:51;;;;;;;20.23;5.57;;;16.30;84.60;;;;;;5011806;28;20034;-75
2021/08/08 01:21:19;;;;;;;20.67;5.20;;;16.30;84.40;;;;;;5008603;28;20077;-73
2021/08/08 01:23:50;;;;;;;25.50;5.93;;;16.20;84.40;;;;;;5027954;28;20487;-72
2021/08/08 01:26:16;;;;;;;28.75;6.68;;;16.30;84.50;;;;;;5034413;28;20129;-73
2021/08/08 01:28:42;;;;;;;26.25;5.63;;;16.30;84.40;;;;;;5035915;28;20111;-76
2021/08/08 01:31:07;;;;;;;24.08;5.80;;;16.30;84.60;;;;;;5034954;28;20078;-73
2021/08/08 01:33:33;;;;;;;24.85;6.18;;;16.30;84.60;;;;;;5028100;28;20040;-72
2021/08/08 01:35:59;;;;;;;25.73;6.30;;;16.30;84.70;;;;;;5026612;28;20056;-74
2021/08/08 01:38:29;;;;;;;20.02;4.97;;;16.20;84.80;;;;;;5023126;28;20044;-74
2021/08/08 01:41:01;;;;;;;25.95;4.88;;;16.20;84.90;;;;;;5020581;28;20253;-73
2021/08/08 01:43:30;;;;;;;18.15;4.57;;;16.20;85.00;;;;;;5013025;28;20378;-73
2021/08/08 01:46:04;;;;;;;18.25;5.55;;;16.20;85.20;;;;;;5007004;28;20037;-73
2021/08/08 01:48:32;;;;;;;22.10;5.47;;;16.10;85.20;;;;;;5029331;28;20436;-72
2021/08/08 01:51:01;;;;;;;17.52;5.18;;;16.10;85.30;;;;;;5027270;28;20116;-74
2021/08/08 01:53:27;;;;;;;19.58;4.97;;;16.10;85.20;;;;;;5022706;28;20099;-73
2021/08/08 01:55:53;;;;;;;20.95;5.38;;;16.10;85.00;;;;;;5020892;28;20470;-75
2021/08/08 01:58:19;;;;;;;19.15;5.38;;;16.10;85.10;;;;;;5016712;28;20088;-73
2021/08/08 02:00:49;;;;;;;19.80;5.13;;;16.10;85.20;;;;;;5018848;28;20060;-72
2021/08/08 02:03:15;;;;;;;26.45;5.55;;;16.10;85.00;;;;;;5022911;28;20030;-78
2021/08/08 02:05:40;;;;;;;19.35;5.40;;;16.10;84.90;;;;;;5021228;28;20021;-79
2021/08/08 02:08:07;;;;;;;21.38;4.60;;;16.00;85.00;;;;;;5025101;28;20041;-76
2021/08/08 02:10:32;;;;;;;20.75;4.95;;;16.10;84.90;;;;;;5017844;28;20082;-73
2021/08/08 02:12:58;;;;;;;24.48;5.32;;;16.00;84.90;;;;;;5003613;28;20030;-72
2021/08/08 02:15:24;;;;;;;21.00;5.25;;;16.00;85.00;;;;;;5010356;28;20037;-76
2021/08/08 02:17:50;;;;;;;23.95;4.47;;;16.00;85.10;;;;;;5000885;28;20118;-73
2021/08/08 02:20:17;;;;;;;20.30;4.78;;;16.00;85.10;;;;;;5007186;28;20042;-73
2021/08/08 02:22:44;;;;;;;20.85;4.93;;;16.00;85.10;;;;;;5007310;28;20093;-77
2021/08/08 02:25:11;;;;;;;20.23;5.43;;;16.00;85.20;;;;;;5007721;28;20483;-78
2021/08/08 02:27:37;;;;;;;19.00;5.28;;;16.00;85.20;;;;;;5010854;28;20507;-73
2021/08/08 02:30:05;;;;;;;24.23;5.82;;;16.00;85.30;;;;;;5006513;28;20034;-73
2021/08/08 02:32:31;;;;;;;23.65;4.95;;;16.00;85.20;;;;;;4999990;28;20034;-80
2021/08/08 02:34:57;;;;;;;19.10;5.03;;;16.00;85.30;;;;;;5000654;28;20033;-76
2021/08/08 02:37:22;;;;;;;21.58;4.80;;;16.00;85.30;;;;;;5001673;28;20458;-73
2021/08/08 02:39:48;;;;;;;23.85;5.93;;;16.00;85.40;;;;;;5000686;28;20034;-73
2021/08/08 02:42:14;;;;;;;27.55;5.05;;;15.90;85.50;;;;;;4998849;28;20029;-73
2021/08/08 02:44:39;;;;;;;19.42;4.47;;;15.90;85.60;;;;;;5022399;28;20393;-76
2021/08/08 02:47:05;;;;;;;22.02;4.70;;;15.90;85.70;;;;;;5006368;28;20089;-78
2021/08/08 02:49:31;;;;;;;23.02;5.78;;;15.90;85.70;;;;;;5007941;28;20049;-73
2021/08/08 02:51:56;;;;;;;20.90;5.15;;;15.90;85.80;;;;;;5010723;28;20026;-76
2021/08/08 02:54:22;;;;;;;21.35;4.53;;;15.90;85.60;;;;;;5014813;28;20052;-74
2021/08/08 02:56:48;;;;;;;20.95;5.60;;;15.90;85.90;;;;;;5011642;28;20037;-74
2021/08/08 02:59:14;;;;;;;19.65;5.47;;;15.90;85.70;;;;;;5008095;28;20045;-73
2021/08/08 03:01:39;;;;;;;20.27;5.10;;;15.90;85.70;;;;;;5012433;28;20372;-76
2021/08/08 03:04:05;;;;;;;23.80;5.25;;;16.00;85.60;;;;;;5018385;28;20087;-74
2021/08/08 03:06:30;;;;;;;24.75;5.30;;;16.00;85.50;;;;;;5026657;28;20392;-76
2021/08/08 03:08:56;;;;;;;22.88;5.68;;;16.00;85.40;;;;;;5010219;28;20113;-74
2021/08/08 03:11:22;;;;;;;27.63;4.85;;;15.90;85.50;;;;;;4992772;28;20042;-75
2021/08/08 03:13:48;;;;;;;19.55;5.50;;;15.90;85.40;;;;;;5004521;28;20526;-73
2021/08/08 03:16:13;;;;;;;18.70;5.13;;;15.90;85.30;;;;;;4994347;28;20056;-73
2021/08/08 03:18:39;;;;;;;24.33;5.90;;;16.00;85.20;;;;;;5006562;28;20040;-73
2021/08/08 03:21:06;;;;;;;21.60;5.32;;;15.90;85.10;;;;;;5036609;28;20113;-77
2021/08/08 03:23:32;;;;;;;21.08;4.97;;;16.00;84.80;;;;;;5032414;28;20030;-75
2021/08/08 03:25:58;;;;;;;23.85;5.20;;;15.90;84.90;;;;;;5034384;28;20042;-73
2021/08/08 03:28:23;;;;;;;23.80;5.40;;;15.80;85.00;;;;;;5037182;28;20131;-74
2021/08/08 03:30:49;;;;;;;24.10;5.13;;;15.80;85.10;;;;;;5034004;28;20112;-76
2021/08/08 03:33:15;;;;;;;21.85;5.53;;;15.80;84.90;;;;;;5036787;28;20033;-75
2021/08/08 03:35:40;;;;;;;20.00;5.63;;;15.80;84.80;;;;;;5029670;28;20061;-75
2021/08/08 03:38:07;;;;;;;22.02;5.25;;;15.80;84.80;;;;;;5035868;28;20046;-74
2021/08/08 03:40:34;;;;;;;26.02;6.13;;;15.70;84.90;;;;;;5038361;28;20025;-73
2021/08/08 03:43:00;;;;;;;16.73;5.55;;;15.70;85.00;;;;;;5035285;28;20032;-73
2021/08/08 03:45:26;;;;;;;26.10;6.85;;;15.60;85.00;;;;;;5006841;28;20034;-73
2021/08/08 03:47:51;;;;;;;21.20;5.35;;;15.60;85.00;;;;;;5010707;28;20038;-73
2021/08/08 03:50:17;;;;;;;22.08;5.20;;;15.60;85.20;;;;;;5015570;28;20533;-73
2021/08/08 03:52:43;;;;;;;18.60;5.38;;;15.50;85.30;;;;;;5007446;28;20041;-84
2021/08/08 03:55:09;;;;;;;19.92;5.43;;;15.50;85.60;;;;;;5009897;28;20034;-74
2021/08/08 03:57:34;;;;;;;22.83;6.13;;;15.40;85.50;;;;;;5000912;28;20181;-73
2021/08/08 04:00:00;;;;;;;25.45;5.75;;;15.40;85.80;;;;;;4996358;28;20117;-78
2021/08/08 04:02:26;;;;;;;23.75;5.38;;;15.30;85.90;;;;;;5019186;28;20468;-73
2021/08/08 04:04:51;;;;;;;19.50;4.70;;;15.30;85.90;;;;;;5019827;28;20048;-76
2021/08/08 04:07:17;;;;;;;23.20;6.35;;;15.30;86.10;;;;;;5031072;28;20029;-76
2021/08/08 04:09:43;;;;;;;20.52;5.85;;;15.30;86.00;;;;;;5003058;28;20049;-73
2021/08/08 04:12:09;;;;;;;21.15;5.15;;;15.20;86.20;;;;;;4993103;28;20035;-73
2021/08/08 04:14:35;;;;;;;17.67;4.65;;;15.20;86.10;;;;;;4996835;28;20541;-73
2021/08/08 04:17:02;;;;;;;19.85;5.03;;;15.20;86.20;;;;;;5000121;28;20026;-74
2021/08/08 04:19:27;;;;;;;25.08;5.25;;;15.20;86.20;;;;;;5002228;28;20465;-73
2021/08/08 04:21:53;;;;;;;19.98;5.93;;;15.20;86.30;;;;;;5005136;28;20120;-74
2021/08/08 04:24:18;;;;;;;28.50;5.80;;;15.10;86.20;;;;;;5000998;28;20030;-74
2021/08/08 04:26:44;;;;;;;23.52;5.90;;;15.20;86.30;;;;;;5002024;28;20121;-72
2021/08/08 04:29:10;;;;;;;24.02;5.25;;;15.10;86.20;;;;;;5002098;28;20470;-73
2021/08/08 04:31:36;;;;;;;24.63;6.28;;;15.10;86.30;;;;;;5006246;28;20366;-72
2021/08/08 04:34:01;;;;;;;23.55;5.20;;;15.10;86.40;;;;;;4994464;28;20492;-82
2021/08/08 04:36:27;;;;;;;16.95;5.30;;;15.00;86.50;;;;;;5025784;28;20405;-72
2021/08/08 04:38:53;;;;;;;26.60;6.97;;;15.00;86.40;;;;;;5024382;28;20103;-75
2021/08/08 04:41:18;;;;;;;22.38;5.80;;;15.00;86.70;;;;;;5007850;28;20044;-73
2021/08/08 04:43:44;;;;;;;21.15;5.97;;;14.90;86.70;;;;;;4997400;28;20030;-72
2021/08/08 04:46:09;;;;;;;18.20;5.75;;;14.90;86.70;;;;;;5003453;28;20104;-73
2021/08/08 04:48:35;;;;;;;21.48;6.13;;;14.90;86.70;;;;;;5000195;28;20038;-72
2021/08/08 04:51:01;;;;;;;24.13;6.43;;;14.90;86.60;;;;;;5001265;28;20041;-73
2021/08/08 04:53:27;;;;;;;20.63;6.03;;;15.00;86.60;;;;;;5005639;28;20045;-73
2021/08/08 04:55:54;;;;;;;23.33;6.50;;;15.00;86.40;;;;;;5009601;28;20428;-73
2021/08/08 04:58:20;;;;;;;21.10;5.68;;;15.00;86.00;;;;;;5009379;28;20037;-73
2021/08/08 05:00:46;;;;;;;19.33;5.50;;;15.00;86.10;;;;;;5000723;28;20026;-73
2021/08/08 05:03:11;;;;;;;23.85;6.25;;;15.00;85.90;;;;;;5014027;28;20034;-76
2021/08/08 05:05:37;;;;;;;19.58;6.25;;;15.00;86.00;;;;;;5015874;28;20033;-73
2021/08/08 05:08:03;;;;;;;26.15;5.93;;;15.00;85.90;;;;;;5033171;28;20095;-73
2021/08/08 05:10:28;;;;;;;27.02;5.82;;;15.10;85.70;;;;;;5026903;28;20466;-76
2021/08/08 05:12:55;;;;;;;24.85;6.57;;;15.10;85.30;;;;;;5040057;28;20048;-73
2021/08/08 05:15:22;;;;;;;20.17;5.95;;;15.10;85.10;;;;;;5026158;28;20625;-74
2021/08/08 05:17:48;;;;;;;19.25;5.30;;;15.20;84.90;;;;;;5018477;28;20177;-73
2021/08/08 05:20:14;;;;;;;22.23;6.25;;;15.30;84.80;;;;;;5031506;28;20134;-79
2021/08/08 05:22:40;;;;;;;21.95;5.95;;;15.40;84.40;;;;;;5025428;28;20179;-73
2021/08/08 05:25:06;;;;;;;22.13;6.10;;;15.50;84.00;;;;;;5031153;28;20536;-73
2021/08/08 05:27:34;;;;;;;20.17;6.25;;;15.60;83.70;;;;;;5017875;28;20548;-75
2021/08/08 05:30:00;;;;;;;20.10;6.20;;;15.60;83.80;;;;;;5023935;28;20025;-73
2021/08/08 05:32:26;;;;;;;21.08;5.80;;;15.60;83.90;;;;;;4996915;28;20379;-73
2021/08/08 05:34:51;;;;;;;22.27;6.43;;;15.60;83.40;;;;;;5002779;28;20493;-73
2021/08/08 05:37:17;;;;;;;17.45;5.38;;;15.70;83.50;;;;;;5004500;28;20056;-73
2021/08/08 05:39:43;;;;;;;15.80;5.78;;;15.80;83.00;;;;;;5006421;28;20180;-80
2021/08/08 05:42:09;;;;;;;21.25;6.28;;;15.80;83.10;;;;;;5007659;28;20050;-75
2021/08/08 05:44:37;;;;;;;25.30;5.97;;;15.90;82.70;;;;;;5002820;28;20030;-74
2021/08/08 05:47:05;;;;;;;16.48;5.82;;;16.10;82.20;;;;;;5001214;28;20034;-76
2021/08/08 05:49:33;;;;;;;24.77;6.07;;;16.10;81.70;;;;;;5004010;28;20188;-76
2021/08/08 05:51:59;;;;;;;19.67;6.35;;;16.20;81.70;;;;;;5012714;28;20145;-73
2021/08/08 05:54:25;;;;;;;24.35;6.50;;;16.40;81.30;;;;;;5008974;28;21307;-82
2021/08/08 05:56:51;;;;;;;18.50;6.15;;;16.40;81.10;;;;;;5012698;28;20088;-74
2021/08/08 05:59:16;;;;;;;18.88;5.40;;;16.30;80.70;;;;;;5000829;28;20493;-73
2021/08/08 06:01:42;;;;;;;19.48;5.18;;;16.20;81.40;;;;;;5003952;28;20044;-73
2021/08/08 06:04:08;;;;;;;18.25;6.60;;;16.20;81.50;;;;;;5007369;28;20478;-77
2021/08/08 06:06:34;;;;;;;18.85;5.57;;;16.10;81.50;;;;;;5008927;28;20059;-75
2021/08/08 06:08:59;;;;;;;16.73;5.00;;;16.20;81.80;;;;;;5014202;28;20128;-73
2021/08/08 06:11:25;;;;;;;19.73;5.63;;;16.20;81.40;;;;;;4998571;28;20034;-73
2021/08/08 06:13:51;;;;;;;25.45;5.10;;;16.30;81.30;;;;;;5007571;28;20049;-73
2021/08/08 06:16:16;;;;;;;18.90;5.25;;;16.40;80.60;;;;;;5012551;28;20041;-73
2021/08/08 06:18:42;;;;;;;17.30;5.72;;;16.50;80.50;;;;;;5010766;28;20101;-74
2021/08/08 06:21:08;;;;;;;19.17;6.18;;;16.50;80.50;;;;;;5016124;28;20077;-72
2021/08/08 06:23:33;;;;;;;21.02;5.95;;;16.60;80.00;;;;;;5026951;28;20038;-72
2021/08/08 06:25:59;;;;;;;17.58;5.10;;;16.80;79.20;;;;;;5008826;28;20385;-74
2021/08/08 06:28:25;;;;;;;19.98;5.65;;;16.70;78.80;;;;;;4999880;28;20026;-73
2021/08/08 06:30:51;;;;;;;17.48;4.93;;;16.70;79.00;;;;;;5005916;28;20037;-74
2021/08/08 06:33:19;;;;;;;19.20;5.18;;;16.70;78.60;;;;;;4997514;28;20498;-79
2021/08/08 06:35:45;;;;;;;19.65;5.00;;;16.60;79.40;;;;;;5001936;28;20484;-74
2021/08/08 06:38:11;;;;;;;18.73;5.25;;;16.50;79.90;;;;;;5001713;28;20050;-73
2021/08/08 06:40:36;;;;;;;21.35;5.45;;;16.70;80.00;;;;;;5003274;28;20030;-73
2021/08/08 06:43:04;;;;;;;22.33;5.15;;;17.00;79.30;;;;;;5000164;28;20462;-74
2021/08/08 06:45:31;;;;;;;12.23;4.57;;;17.10;77.90;;;;;;5009139;28;20044;-73
2021/08/08 06:47:59;;;;;;;13.55;4.70;;;17.60;77.00;;;;;;5021523;28;20443;-75
2021/08/08 06:50:24;;;;;;;18.40;4.40;;;17.80;75.90;;;;;;5022878;28;20470;-73
2021/08/08 06:52:50;;;;;;;16.63;4.55;;;18.10;74.20;;;;;;5027397;28;20032;-74
2021/08/08 06:55:16;;;;;;;14.95;4.97;;;18.20;74.90;;;;;;5020454;28;20056;-73
2021/08/08 06:57:41;;;;;;;16.13;4.90;;;18.40;73.50;;;;;;5024564;28;20038;-75
2021/08/08 07:00:08;;;;;;;18.70;5.10;;;18.20;73.90;;;;;;5023039;28;20030;-81
2021/08/08 07:02:33;;;;;;;17.70;4.50;;;18.10;74.70;;;;;;5019244;28;20628;-76
2021/08/08 07:04:59;;;;;;;15.30;5.45;;;18.30;73.90;;;;;;5021171;28;20026;-73
2021/08/08 07:07:25;;;;;;;19.73;5.78;;;18.30;73.40;;;;;;5011620;28;20033;-73
2021/08/08 07:09:50;;;;;;;20.38;4.63;;;18.20;73.40;;;;;;5031802;28;20552;-84
2021/08/08 07:12:16;;;;;;;18.63;5.35;;;18.30;73.90;;;;;;5017878;28;20115;-77
2021/08/08 07:14:42;;;;;;;15.95;4.47;;;18.20;73.30;;;;;;5021645;28;20458;-74
2021/08/08 07:17:07;;;;;;;20.60;4.72;;;18.30;73.10;;;;;;5023893;28;20144;-81
2021/08/08 07:19:33;;;;;;;21.58;4.50;;;18.30;73.00;;;;;;5019528;28;20037;-72
2021/08/08 07:21:59;;;;;;;16.30;4.70;;;18.30;72.60;;;;;;5023380;28;20030;-72
2021/08/08 07:24:25;;;;;;;19.73;4.85;;;18.40;72.70;;;;;;5020404;28;20086;-74
2021/08/08 07:26:50;;;;;;;14.75;4.50;;;18.40;72.60;;;;;;5018970;28;20049;-73
2021/08/08 07:29:16;;;;;;;14.93;4.53;;;18.60;72.40;;;;;;5022588;28;20041;-75
2021/08/08 07:31:42;;;;;;;15.48;4.88;;;18.70;71.70;;;;;;5017652;28;20371;-72
2021/08/08 07:34:07;;;;;;;13.65;4.53;;;18.60;71.20;;;;;;5025165;28;20386;-73
2021/08/08 07:36:33;;;;;;;14.98;5.13;;;18.60;72.70;;;;;;5022817;28;20029;-76
2021/08/08 07:38:59;;;;;;;15.40;4.95;;;18.60;72.10;;;;;;5019671;28;20079;-72
2021/08/08 07:41:24;;;;;;;12.77;4.40;;;18.50;71.70;;;;;;5020955;28;20034;-72
2021/08/08 07:43:50;;;;;;;15.13;4.65;;;18.60;72.00;;;;;;5022637;28;20376;-73
2021/08/08 07:46:16;;;;;;;12.52;4.00;;;18.50;71.80;;;;;;5020285;28;20033;-79
2021/08/08 07:48:41;;;;;;;18.88;4.43;;;18.50;71.30;;;;;;5023697;28;20477;-73
2021/08/08 07:51:07;;;;;;;15.98;4.68;;;18.60;71.20;;;;;;5020263;28;20026;-72
2021/08/08 07:53:34;;;;;;;17.30;4.93;;;18.40;72.00;;;;;;5019863;28;20506;-72
2021/08/08 07:55:59;;;;;;;16.15;5.07;;;18.30;71.80;;;;;;5017960;28;20804;-74
2021/08/08 07:58:25;;;;;;;19.65;4.75;;;18.10;72.30;;;;;;5023189;28;20137;-72
2021/08/08 08:00:51;;;;;;;16.40;4.22;;;17.90;73.00;;;;;;5024116;28;20368;-79
2021/08/08 08:03:17;;;;;;;15.80;4.28;;;18.10;73.20;;;;;;5016754;28;20589;-72
2021/08/08 08:05:43;;;;;;;14.43;4.55;;;18.10;72.70;;;;;;5018579;28;20057;-84
2021/08/08 08:08:09;;;;;;;16.30;4.63;;;18.20;73.00;;;;;;5016417;28;20068;-72
2021/08/08 08:10:35;;;;;;;18.80;4.35;;;18.10;72.70;;;;;;5013891;28;20076;-72
2021/08/08 08:13:02;;;;;;;15.68;4.55;;;18.10;73.00;;;;;;5018159;28;20021;-74
2021/08/08 08:15:28;;;;;;;17.17;4.80;;;18.10;72.90;;;;;;5014300;28;20045;-72
2021/08/08 08:17:54;;;;;;;16.33;4.32;;;18.30;73.50;;;;;;5020549;28;20064;-73
2021/08/08 08:20:21;;;;;;;12.50;4.00;;;18.40;73.20;;;;;;5021176;28;20042;-72
2021/08/08 08:22:46;;;;;;;17.65;4.45;;;18.50;72.60;;;;;;5019039;28;20025;-70
2021/08/08 08:25:12;;;;;;;14.93;4.05;;;18.60;72.60;;;;;;5019959;28;20046;-74
2021/08/08 08:27:39;;;;;;;15.13;3.97;;;18.60;70.80;;;;;;5022202;28;20359;-69
2021/08/08 08:30:06;;;;;;;12.35;3.58;;;18.60;71.20;;;;;;5016782;28;20044;-70
2021/08/08 08:32:32;;;;;;;13.20;3.78;;;18.60;71.30;;;;;;5017188;28;20097;-70
2021/08/08 08:35:04;;;;;;;12.02;4.07;;;18.60;71.00;;;;;;5018226;28;20411;-72
2021/08/08 08:37:31;;;;;;;14.00;3.53;;;18.60;70.70;;;;;;5027222;28;20025;-70
2021/08/08 08:39:57;;;;;;;13.10;4.18;;;18.70;70.20;;;;;;5024612;28;20045;-71
2021/08/08 08:42:26;;;;;;;12.98;3.65;;;18.80;70.20;;;;;;5018295;28;20116;-70
2021/08/08 08:44:56;;;;;;;14.93;3.70;;;19.10;69.80;;;;;;5018773;28;20040;-70
2021/08/08 08:47:22;;;;;;;14.05;4.03;;;19.40;69.30;;;;;;5017509;28;20033;-72
2021/08/08 08:49:54;;;;;;;13.13;3.25;;;19.50;67.90;;;;;;5019644;28;20392;-69
2021/08/08 08:52:26;;;;;;;12.45;3.60;;;19.60;67.10;;;;;;5021391;28;20478;-71
2021/08/08 08:54:52;;;;;;;16.70;3.47;;;19.40;66.80;;;;;;5021347;28;20025;-70
2021/08/08 08:57:18;;;;;;;13.25;3.60;;;19.40;67.80;;;;;;5013463;28;20042;-74
2021/08/08 08:59:44;;;;;;;15.38;3.95;;;19.30;68.20;;;;;;5021085;28;20099;-70
2021/08/08 09:02:14;;;;;;;12.45;3.47;;;19.40;68.20;;;;;;5022312;28;20036;-69
2021/08/08 09:04:40;;;;;;;13.68;3.63;;;19.70;67.10;;;;;;5013349;28;20420;-74
2021/08/08 09:07:05;;;;;;;14.45;3.80;;;20.10;65.00;;;;;;5020621;28;20030;-69
2021/08/08 09:09:32;;;;;;;10.40;3.67;;;20.30;64.80;;;;;;5014954;28;20285;-70
2021/08/08 09:11:58;;;;;;;14.57;4.32;;;20.10;64.90;;;;;;5015348;28;20061;-69
2021/08/08 09:14:24;;;;;;;14.38;3.63;;;19.90;66.70;;;;;;5018296;28;20118;-69
2021/08/08 09:16:52;;;;;;;11.63;3.60;;;20.20;66.20;;;;;;5020345;28;20147;-71
2021/08/08 09:19:19;;;;;;;12.75;3.83;;;20.20;64.30;;;;;;5020611;28;20038;-73
2021/08/08 09:21:45;;;;;;;10.40;3.53;;;20.20;64.20;;;;;;5018859;28;20144;-70
2021/08/08 09:24:34;;;;;;;16.35;3.35;;;20.30;65.10;;;;;;5012366;28;20034;-70
2021/08/08 09:27:00;;;;;;;11.20;3.40;;;20.20;63.20;;;;;;5019312;28;20053;-72
2021/08/08 09:29:26;;;;;;;10.18;3.50;;;20.30;62.30;;;;;;5017887;28;20037;-70
2021/08/08 09:31:51;;;;;;;9.73;3.70;;;20.30;62.20;;;;;;5016348;28;20087;-72
2021/08/08 09:34:25;;;;;;;11.55;3.70;;;20.10;61.70;;;;;;5011466;28;20716;-74
2021/08/08 09:36:52;;;;;;;10.52;3.30;;;20.10;63.20;;;;;;5015496;28;20029;-71
2021/08/08 09:39:36;;;;;;;11.95;3.53;;;20.10;63.80;;;;;;5014027;28;20057;-70
2021/08/08 09:42:15;;;;;;;13.85;3.30;;;20.10;62.70;;;;;;5013582;28;20034;-70
2021/08/08 09:44:51;;;;;;;11.15;3.42;;;20.00;63.80;;;;;;5016457;28;20038;-73
2021/08/08 09:47:18;;;;;;;10.52;3.55;;;20.00;63.30;;;;;;5015542;28;20124;-69
2021/08/08 09:49:59;;;;;;;12.75;3.47;;;20.30;62.70;;;;;;4997402;28;20034;-70
2021/08/08 09:52:25;;;;;;;12.27;3.47;;;20.60;61.50;;;;;;4995609;28;20392;-70
2021/08/08 09:54:50;;;;;;;11.70;3.42;;;20.60;62.40;;;;;;5000317;28;20037;-71
2021/08/08 09:57:16;;;;;;;11.52;3.72;;;20.50;61.90;;;;;;4998704;28;20034;-70
2021/08/08 09:59:52;;;;;;;12.75;3.95;;;20.40;62.70;;;;;;5004080;28;20105;-72
2021/08/08 10:02:22;;;;;;;10.48;3.75;;;20.60;64.10;;;;;;5008815;28;20099;-70
2021/08/08 10:04:51;;;;;;;12.38;3.30;;;20.80;62.50;;;;;;4997505;28;20026;-71
2021/08/08 10:07:18;;;;;;;9.98;3.30;;;20.90;61.50;;;;;;5008782;28;20026;-70
2021/08/08 10:09:49;;;;;;;13.43;3.25;;;21.00;61.30;;;;;;5025598;28;20373;-70
2021/08/08 10:12:39;;;;;;;11.30;3.15;;;20.80;60.50;;;;;;4994321;28;20030;-75
2021/08/08 10:15:06;;;;;;;10.50;3.28;;;21.00;60.70;;;;;;5020962;28;20030;-74
2021/08/08 10:17:34;;;;;;;13.43;3.88;;;21.00;60.40;;;;;;5001315;28;20033;-71
2021/08/08 10:20:01;;;;;;;11.20;3.63;;;21.30;61.00;;;;;;5000769;28;20029;-74
2021/08/08 10:22:27;;;;;;;14.57;3.90;;;21.70;59.60;;;;;;5003012;28;20113;-75
2021/08/08 10:24:56;;;;;;;11.02;3.42;;;21.90;57.80;;;;;;4999240;28;20759;-71
2021/08/08 10:27:26;;;;;;;10.48;3.45;;;22.00;56.20;;;;;;4995564;28;20503;-76
2021/08/08 10:29:55;;;;;;;11.30;3.63;;;22.10;57.30;;;;;;4999148;28;20034;-76
2021/08/08 10:32:27;;;;;;;11.10;3.33;;;21.80;57.50;;;;;;5000986;28;20030;-70
2021/08/08 10:34:53;;;;;;;9.18;3.22;;;21.70;58.40;;;;;;5002517;28;20546;-76
2021/08/08 10:37:25;;;;;;;9.88;2.60;;;21.30;58.00;;;;;;5009058;28;20063;-77
2021/08/08 10:39:51;;;;;;;8.20;2.38;;;20.50;64.20;;;;;;5013535;28;20112;-73
2021/08/08 10:42:19;;;;;;;7.45;2.10;;;18.70;71.20;;;;;;5010540;28;20072;-70
2021/08/08 10:44:48;;;;;;;6.13;2.70;;;18.00;73.50;;;;;;5025651;28;20109;-69
2021/08/08 10:47:27;;;;;;;6.95;3.15;;;17.20;75.10;;;;;;5026239;28;20084;-70
2021/08/08 10:49:53;;;;;;;6.82;2.30;;;17.10;77.70;;;;;;5027886;28;20105;-70
2021/08/08 10:52:19;;;;;;;4.85;1.95;;;17.10;77.50;;;;;;5024261;28;20034;-70
2021/08/08 10:54:52;;;;;;;7.40;2.03;;;17.00;77.40;;;;;;5029567;28;20080;-70
2021/08/08 10:57:19;;;;;;;5.72;1.77;;;17.10;78.20;;;;;;5033918;28;20416;-70
2021/08/08 10:59:49;;;;;;;6.72;2.15;;;17.00;77.70;;;;;;5028429;28;20042;-72
2021/08/08 11:02:25;;;;;;;5.05;1.85;;;16.90;78.20;;;;;;5027618;28;20048;-74
2021/08/08 11:04:50;;;;;;;7.97;1.95;;;16.90;78.00;;;;;;5033520;28;20080;-69
2021/08/08 11:07:24;;;;;;;7.10;2.00;;;16.70;78.50;;;;;;5028630;28;20029;-71
2021/08/08 11:09:50;;;;;;;7.20;1.95;;;16.50;78.90;;;;;;5013299;28;20112;-70
2021/08/08 11:12:18;;;;;;;6.72;2.67;;;16.50;79.70;;;;;;5020512;28;20459;-72
2021/08/08 11:14:48;;;;;;;9.40;2.40;;;16.40;80.50;;;;;;5030430;28;20029;-69
2021/08/08 11:17:13;;;;;;;5.28;2.40;;;16.30;81.50;;;;;;5025040;28;20042;-68
2021/08/08 11:19:42;;;;;;;9.30;3.53;;;16.30;81.80;;;;;;5024639;28;20083;-70
2021/08/08 11:22:15;;;;;;;7.72;2.97;;;16.20;82.10;;;;;;5025415;28;20046;-70
2021/08/08 11:24:56;;;;;;;8.00;3.17;;;16.20;83.60;;;;;;5024880;28;20029;-69
2021/08/08 11:27:42;;;;;;;9.25;3.63;;;16.30;83.30;;;;;;5021808;28;20465;-69
2021/08/08 11:30:11;;;;;;;9.60;3.95;;;16.40;83.20;;;;;;5027784;28;20037;-69
2021/08/08 11:32:37;;;;;;;12.60;4.15;;;16.40;82.80;;;;;;5032417;28;20049;-68
2021/08/08 11:35:06;;;;;;;8.00;3.33;;;16.50;82.50;;;;;;5033448;28;20119;-69
2021/08/08 11:37:37;;;;;;;7.47;3.03;;;16.40;82.10;;;;;;5032648;28;20034;-69
2021/08/08 11:40:24;;;;;;;7.38;3.28;;;16.40;81.60;;;;;;5010110;28;20025;-69
2021/08/08 11:42:56;;;;;;;9.38;3.35;;;16.50;81.50;;;;;;5007206;28;20028;-68
2021/08/08 11:45:36;;;;;;;7.18;3.35;;;16.60;81.80;;;;;;5008144;28;20033;-72
2021/08/08 11:48:03;;;;;;;10.88;3.80;;;16.80;81.50;;;;;;4997614;28;20105;-68
2021/08/08 11:50:29;;;;;;;7.40;3.58;;;17.00;81.60;;;;;;5016092;28;20080;-69
2021/08/08 11:53:02;;;;;;;10.88;3.67;;;17.20;80.50;;;;;;5009473;28;20040;-70
2021/08/08 11:55:30;;;;;;;10.33;3.63;;;17.50;79.90;;;;;;5026943;28;20025;-69
2021/08/08 11:58:08;;;;;;;9.27;3.38;;;17.60;79.60;;;;;;5011217;28;20050;-70
2021/08/08 12:00:39;;;;;;;8.25;2.92;;;17.80;78.80;;;;;;5004175;28;20049;-76
2021/08/08 12:03:09;;;;;;;8.95;3.42;;;18.00;78.30;;;;;;5007987;28;20130;-74
2021/08/08 12:05:36;;;;;;;7.18;3.45;;;18.10;79.10;;;;;;5000245;28;20042;-69
2021/08/08 12:08:04;;;;;;;8.82;3.60;;;18.40;78.90;;;;;;5000948;28;20069;-72
2021/08/08 12:10:32;;;;;;;8.73;3.70;;;18.80;78.30;;;;;;4998003;28;20046;-69
2021/08/08 12:12:58;;;;;;;11.18;4.32;;;19.40;76.70;;;;;;5000042;28;20162;-71
2021/08/08 12:15:35;;;;;;;9.43;3.95;;;19.80;76.00;;;;;;4997629;28;20029;-69
2021/08/08 12:18:02;;;;;;;10.13;4.18;;;20.20;75.10;;;;;;5009088;28;20053;-69
2021/08/08 12:20:33;;;;;;;12.40;4.47;;;20.40;72.90;;;;;;4999319;28;20025;-71
2021/08/08 12:23:12;;;;;;;13.43;4.00;;;20.40;71.30;;;;;;5009328;28;20387;-69
2021/08/08 12:25:39;;;;;;;10.15;3.88;;;20.80;72.20;;;;;;5003156;28;20121;-72
2021/08/08 12:28:06;;;;;;;10.10;3.60;;;20.80;70.00;;;;;;4997304;28;20046;-70
2021/08/08 12:30:32;;;;;;;12.20;4.35;;;20.90;69.50;;;;;;5022043;28;20053;-69
2021/08/08 12:33:05;;;;;;;10.38;3.75;;;21.30;70.30;;;;;;5003359;28;20033;-69
2021/08/08 12:35:39;;;;;;;10.35;3.70;;;21.70;69.40;;;;;;5017144;28;20025;-70
2021/08/08 12:38:06;;;;;;;7.85;3.38;;;21.90;65.30;;;;;;5025732;28;20393;-69